Time;durP1;ratioP1;P1;durP2;ratioP2;P2;SDS_P1;SDS_P2;PMS_P1;PMS_P2;Temp;Humidity;BMP_temperature;BMP_pressure;BME280_temperature;BME280_humidity;BME280_pressure;Samples;Min_cycle;Max_cycle;Signal;HPM_P1;HPM_P2
2024/02/23 00:00:07;;;;;;;2.88;1.02;;;5.00;99.90;;;;;;7370342;19;20023;-67
2024/02/23 00:02:33;;;;;;;3.88;0.93;;;5.00;99.90;;;;;;7369065;19;20036;-66
2024/02/23 00:05:00;;;;;;;5.78;0.70;;;5.00;99.90;;;;;;7372766;19;20746;-66
2024/02/23 00:07:26;;;;;;;3.45;1.20;;;5.00;99.90;;;;;;7369129;19;20025;-69
2024/02/23 00:09:52;;;;;;;5.18;0.95;;;5.00;99.90;;;;;;7371860;19;20479;-69
2024/02/23 00:12:19;;;;;;;6.85;1.02;;;5.00;99.90;;;;;;7362017;19;20030;-67
2024/02/23 00:14:45;;;;;;;4.68;0.70;;;5.00;99.90;;;;;;7368025;19;20494;-68
2024/02/23 00:17:12;;;;;;;4.00;1.02;;;5.10;99.90;;;;;;7368031;19;20014;-67
2024/02/23 00:19:38;;;;;;;3.88;0.90;;;5.00;99.90;;;;;;7369417;19;20027;-69
2024/02/23 00:22:11;;;;;;;5.38;1.00;;;4.90;99.90;;;;;;7371781;19;20022;-69
2024/02/23 00:24:37;;;;;;;3.22;0.60;;;4.90;99.90;;;;;;7371465;19;20517;-68
2024/02/23 00:27:03;;;;;;;2.83;0.77;;;4.90;99.90;;;;;;7371014;19;20382;-67
2024/02/23 00:29:30;;;;;;;3.05;0.70;;;4.70;99.90;;;;;;7366336;19;20022;-69
2024/02/23 00:31:57;;;;;;;2.58;0.60;;;4.60;99.90;;;;;;7370215;19;20026;-68
2024/02/23 00:34:25;;;;;;;1.00;0.50;;;4.70;99.90;;;;;;7367987;19;20022;-67
2024/02/23 00:36:52;;;;;;;3.22;0.60;;;4.40;99.90;;;;;;7366481;19;20022;-68
2024/02/23 00:39:19;;;;;;;2.33;0.43;;;4.40;99.90;;;;;;7368073;19;20023;-68
2024/02/23 00:41:46;;;;;;;2.38;0.60;;;4.20;99.90;;;;;;7369548;19;20106;-67
2024/02/23 00:44:13;;;;;;;0.38;0.30;;;4.10;99.90;;;;;;7373455;19;20027;-70
2024/02/23 00:46:40;;;;;;;1.05;0.55;;;4.00;99.90;;;;;;7373155;19;20022;-70
2024/02/23 00:49:07;;;;;;;0.98;0.50;;;3.90;99.90;;;;;;7369260;19;20099;-68
2024/02/23 00:51:34;;;;;;;1.08;0.50;;;3.90;99.90;;;;;;7371746;19;20019;-68
2024/02/23 00:54:01;;;;;;;0.75;0.40;;;3.80;99.90;;;;;;7363996;19;20023;-73
2024/02/23 00:56:28;;;;;;;0.57;0.40;;;3.80;99.90;;;;;;7370258;19;20452;-71
2024/02/23 00:58:55;;;;;;;2.70;0.55;;;3.70;99.90;;;;;;7367983;19;20026;-68
2024/02/23 01:01:26;;;;;;;0.47;0.38;;;3.70;99.90;;;;;;7360082;19;20200;-68
2024/02/23 01:03:54;;;;;;;0.60;0.60;;;3.60;99.90;;;;;;7364537;19;20090;-70
2024/02/23 01:06:20;;;;;;;2.20;0.60;;;3.70;99.90;;;;;;7372371;19;20034;-68
2024/02/23 01:08:47;;;;;;;1.75;0.80;;;3.70;99.90;;;;;;7367463;19;20033;-70
2024/02/23 01:11:13;;;;;;;3.17;0.85;;;3.80;99.90;;;;;;7366164;19;20022;-71
2024/02/23 01:13:39;;;;;;;2.13;0.85;;;3.80;99.90;;;;;;7363718;19;20517;-71
2024/02/23 01:16:06;;;;;;;4.25;0.90;;;3.80;99.90;;;;;;7366535;19;20086;-70
2024/02/23 01:18:32;;;;;;;3.17;0.80;;;3.80;99.90;;;;;;7366960;19;20022;-71
2024/02/23 01:20:58;;;;;;;3.30;1.15;;;3.80;99.90;;;;;;7369850;19;20014;-71
2024/02/23 01:23:24;;;;;;;3.28;1.52;;;3.90;99.90;;;;;;7368102;19;20011;-71
2024/02/23 01:25:50;;;;;;;3.10;1.70;;;4.00;99.90;;;;;;7375459;19;20026;-68
2024/02/23 01:28:17;;;;;;;4.15;2.20;;;3.90;99.90;;;;;;7369402;19;20022;-71
2024/02/23 01:30:43;;;;;;;6.75;3.55;;;4.00;99.90;;;;;;7365719;19;20454;-71
2024/02/23 01:33:09;;;;;;;8.02;3.08;;;4.10;99.90;;;;;;7371208;19;20591;-68
2024/02/23 01:35:36;;;;;;;7.35;2.40;;;4.10;99.90;;;;;;7367485;19;20749;-71
2024/02/23 01:38:02;;;;;;;6.50;2.40;;;4.10;99.90;;;;;;7369961;19;20022;-68
2024/02/23 01:40:29;;;;;;;8.95;1.80;;;4.20;99.90;;;;;;7368757;19;20022;-71
2024/02/23 01:43:07;;;;;;;4.93;1.83;;;4.30;99.90;;;;;;7369292;19;20039;-68
2024/02/23 01:45:33;;;;;;;6.15;1.77;;;4.20;99.90;;;;;;7368932;19;20483;-68
2024/02/23 01:48:00;;;;;;;7.10;1.75;;;4.20;99.90;;;;;;7367562;19;20022;-72
2024/02/23 01:50:27;;;;;;;11.75;2.45;;;4.20;99.90;;;;;;7366123;19;20015;-68
2024/02/23 01:52:56;;;;;;;5.13;1.92;;;4.30;99.90;;;;;;7373618;19;20716;-71
2024/02/23 01:55:23;;;;;;;4.32;1.90;;;4.20;99.90;;;;;;7364944;19;20022;-71
2024/02/23 01:57:50;;;;;;;10.50;2.67;;;4.30;99.90;;;;;;7363695;19;20025;-70
2024/02/23 02:00:18;;;;;;;11.25;2.20;;;4.40;99.90;;;;;;7367682;19;20422;-70
2024/02/23 02:02:51;;;;;;;8.18;2.53;;;4.40;99.90;;;;;;7362074;19;20146;-71
2024/02/23 02:05:19;;;;;;;12.95;3.10;;;4.40;99.90;;;;;;7360948;19;20049;-68
2024/02/23 02:07:50;;;;;;;6.28;2.40;;;4.40;99.90;;;;;;7365146;19;20047;-71
2024/02/23 02:10:17;;;;;;;10.53;2.43;;;4.40;99.90;;;;;;7361000;19;20446;-68
2024/02/23 02:12:44;;;;;;;10.48;2.58;;;4.40;99.90;;;;;;7366659;19;20018;-68
2024/02/23 02:15:12;;;;;;;12.57;2.72;;;4.50;99.90;;;;;;7362307;19;20078;-68
2024/02/23 02:17:38;;;;;;;9.50;2.60;;;4.40;99.90;;;;;;7368581;19;20019;-71
2024/02/23 02:20:05;;;;;;;13.48;3.00;;;4.60;99.90;;;;;;7365539;19;20026;-68
2024/02/23 02:22:37;;;;;;;13.48;3.13;;;4.60;99.90;;;;;;7365690;19;20029;-68
2024/02/23 02:25:04;;;;;;;12.93;3.00;;;4.70;99.90;;;;;;7370959;19;20090;-71
2024/02/23 02:27:31;;;;;;;8.98;2.67;;;4.70;99.90;;;;;;7365595;19;20057;-68
2024/02/23 02:29:58;;;;;;;9.98;3.20;;;4.70;99.90;;;;;;7372741;19;20025;-72
2024/02/23 02:32:24;;;;;;;9.50;3.10;;;4.80;99.90;;;;;;7370543;19;21442;-68
2024/02/23 02:34:51;;;;;;;14.18;3.28;;;4.80;99.90;;;;;;7368500;19;20022;-71
2024/02/23 02:37:17;;;;;;;9.80;2.78;;;4.70;99.90;;;;;;7369064;19;20662;-68
2024/02/23 02:39:43;;;;;;;11.55;2.63;;;4.80;99.90;;;;;;7370711;19;20018;-72
2024/02/23 02:42:09;;;;;;;14.75;2.45;;;4.70;99.90;;;;;;7366596;19;20090;-68
2024/02/23 02:44:36;;;;;;;11.02;2.97;;;4.70;99.90;;;;;;7367958;19;20029;-72
2024/02/23 02:47:02;;;;;;;10.95;2.97;;;4.80;99.90;;;;;;7370658;19;20015;-71
2024/02/23 02:49:28;;;;;;;11.52;3.03;;;4.80;99.90;;;;;;7360334;19;21502;-71
2024/02/23 02:51:54;;;;;;;10.40;2.47;;;4.80;99.90;;;;;;7367818;19;20791;-68
2024/02/23 02:54:21;;;;;;;12.27;2.88;;;4.80;99.90;;;;;;7364169;19;20075;-71
2024/02/23 02:56:53;;;;;;;14.93;2.95;;;4.80;99.90;;;;;;7369283;19;20368;-72
2024/02/23 02:59:20;;;;;;;12.57;2.58;;;4.80;99.90;;;;;;7366939;19;20599;-71
2024/02/23 03:01:49;;;;;;;14.63;2.75;;;4.80;99.90;;;;;;7368253;19;20022;-71
2024/02/23 03:04:16;;;;;;;10.15;2.70;;;4.90;99.90;;;;;;7368913;19;20945;-68
2024/02/23 03:06:42;;;;;;;11.07;3.22;;;4.80;99.90;;;;;;7366479;19;20022;-72
2024/02/23 03:09:08;;;;;;;15.93;3.42;;;4.90;99.90;;;;;;7367954;19;20924;-72
2024/02/23 03:11:36;;;;;;;12.85;3.33;;;4.80;99.90;;;;;;7369449;19;20319;-68
2024/02/23 03:14:02;;;;;;;9.45;2.83;;;4.90;99.90;;;;;;7377261;19;20023;-71
2024/02/23 03:16:34;;;;;;;12.23;2.90;;;4.80;99.90;;;;;;7374352;19;20034;-71
2024/02/23 03:19:02;;;;;;;12.18;2.90;;;4.80;99.90;;;;;;7370695;19;20088;-68
2024/02/23 03:21:32;;;;;;;13.32;2.67;;;4.80;99.90;;;;;;7377387;19;20022;-68
2024/02/23 03:23:58;;;;;;;11.50;2.58;;;4.80;99.90;;;;;;7371898;19;20026;-68
2024/02/23 03:26:24;;;;;;;7.63;2.35;;;4.80;99.90;;;;;;7373529;19;20196;-71
2024/02/23 03:28:51;;;;;;;13.23;2.75;;;4.70;99.90;;;;;;7382322;19;20207;-71
2024/02/23 03:31:17;;;;;;;13.65;2.72;;;4.80;99.90;;;;;;7376653;19;20605;-68
2024/02/23 03:33:43;;;;;;;11.15;2.88;;;4.80;99.90;;;;;;7378894;19;20018;-71
2024/02/23 03:36:09;;;;;;;8.45;2.65;;;4.80;99.90;;;;;;7385185;19;20025;-71
2024/02/23 03:38:36;;;;;;;8.23;2.50;;;4.80;99.90;;;;;;7383653;19;20018;-69
2024/02/23 03:41:02;;;;;;;13.13;2.47;;;4.80;99.90;;;;;;7364480;19;20025;-69
2024/02/23 03:43:28;;;;;;;8.88;2.42;;;4.70;99.90;;;;;;7377786;19;20026;-68
2024/02/23 03:45:58;;;;;;;9.95;2.55;;;4.80;99.90;;;;;;7369005;19;20024;-72
2024/02/23 03:48:24;;;;;;;6.55;2.20;;;4.70;99.90;;;;;;7385718;19;20018;-71
2024/02/23 03:50:50;;;;;;;11.57;2.38;;;4.70;99.90;;;;;;7381474;19;20014;-68
2024/02/23 03:53:16;;;;;;;13.43;2.38;;;4.70;99.90;;;;;;7369527;19;20031;-68
2024/02/23 03:55:42;;;;;;;7.97;1.67;;;4.70;99.90;;;;;;7369042;19;20014;-69
2024/02/23 03:58:08;;;;;;;10.93;2.33;;;4.60;99.90;;;;;;7368185;19;20922;-68
2024/02/23 04:00:35;;;;;;;8.98;2.03;;;4.60;99.90;;;;;;7375261;19;20109;-68
2024/02/23 04:03:01;;;;;;;7.93;1.73;;;4.60;99.90;;;;;;7379630;19;20054;-68
2024/02/23 04:05:27;;;;;;;7.35;1.98;;;4.50;99.90;;;;;;7373267;19;20055;-68
2024/02/23 04:07:53;;;;;;;5.45;1.60;;;4.50;99.90;;;;;;7374246;19;20039;-68
2024/02/23 04:10:20;;;;;;;9.55;2.40;;;4.60;99.90;;;;;;7369516;19;20022;-68
2024/02/23 04:12:49;;;;;;;7.80;1.58;;;4.50;99.90;;;;;;7381301;19;20015;-72
2024/02/23 04:15:17;;;;;;;6.65;1.77;;;4.60;99.90;;;;;;7396870;19;20098;-72
2024/02/23 04:17:48;;;;;;;7.75;1.73;;;4.70;99.90;;;;;;7400942;19;20011;-72
2024/02/23 04:20:14;;;;;;;6.70;1.63;;;4.80;99.90;;;;;;7369101;19;20361;-68
2024/02/23 04:22:42;;;;;;;10.55;1.48;;;4.70;99.90;;;;;;7372988;19;20011;-69
2024/02/23 04:25:09;;;;;;;5.85;2.10;;;4.70;99.90;;;;;;7382156;19;20077;-72
2024/02/23 04:27:43;;;;;;;8.02;1.77;;;4.70;99.90;;;;;;7399595;19;20023;-71
2024/02/23 04:30:14;;;;;;;12.25;2.45;;;4.80;99.90;;;;;;7400835;19;20010;-72
2024/02/23 04:32:42;;;;;;;7.60;2.42;;;4.80;99.90;;;;;;7393859;19;20020;-69
2024/02/23 04:35:09;;;;;;;7.43;2.13;;;4.80;99.90;;;;;;7369617;19;20021;-69
2024/02/23 04:37:36;;;;;;;7.82;2.67;;;4.90;99.90;;;;;;7399128;19;20018;-69
2024/02/23 04:40:06;;;;;;;4.80;2.33;;;4.90;99.90;;;;;;7371893;19;20022;-68
2024/02/23 04:42:33;;;;;;;9.63;3.30;;;4.90;99.90;;;;;;7371346;19;20039;-68
2024/02/23 04:45:01;;;;;;;7.30;2.78;;;4.90;99.90;;;;;;7370891;19;20046;-69
2024/02/23 04:47:27;;;;;;;9.25;3.45;;;4.90;99.90;;;;;;7375629;19;20022;-71
2024/02/23 04:49:54;;;;;;;12.10;3.92;;;4.90;99.90;;;;;;7382686;19;20085;-68
2024/02/23 04:52:22;;;;;;;15.35;5.00;;;4.80;99.90;;;;;;7371721;19;20006;-68
2024/02/23 04:54:48;;;;;;;7.68;4.68;;;4.90;99.90;;;;;;7398234;19;20363;-69
2024/02/23 04:57:14;;;;;;;10.35;4.97;;;4.90;99.90;;;;;;7369863;19;20018;-68
2024/02/23 04:59:40;;;;;;;9.88;5.45;;;4.90;99.90;;;;;;7383805;19;20399;-72
2024/02/23 05:02:09;;;;;;;12.73;6.20;;;4.90;99.90;;;;;;7390716;19;20022;-71
2024/02/23 05:04:35;;;;;;;11.68;6.88;;;4.90;99.90;;;;;;7379038;19;20029;-72
2024/02/23 05:07:01;;;;;;;15.98;7.68;;;5.00;99.90;;;;;;7391301;19;20041;-71
2024/02/23 05:09:27;;;;;;;19.48;8.15;;;5.00;99.90;;;;;;7396753;19;20011;-71
2024/02/23 05:11:56;;;;;;;13.27;8.23;;;5.00;99.90;;;;;;7383493;19;20022;-71
2024/02/23 05:14:22;;;;;;;13.10;7.97;;;5.10;99.90;;;;;;7370612;19;20513;-67
2024/02/23 05:16:54;;;;;;;13.77;8.00;;;5.00;99.90;;;;;;7392399;19;20022;-71
2024/02/23 05:19:20;;;;;;;11.20;7.45;;;5.10;99.90;;;;;;7379421;19;20031;-68
2024/02/23 05:21:47;;;;;;;12.30;7.18;;;5.10;99.90;;;;;;7370792;19;20018;-67
2024/02/23 05:24:13;;;;;;;14.50;7.75;;;5.10;99.90;;;;;;7367443;19;20031;-67
2024/02/23 05:26:39;;;;;;;11.95;6.63;;;5.10;99.90;;;;;;7375219;19;20380;-68
2024/02/23 05:29:12;;;;;;;10.38;6.95;;;5.00;99.90;;;;;;7390105;19;20014;-71
2024/02/23 05:31:48;;;;;;;11.32;7.25;;;5.00;99.90;;;;;;7389467;19;20101;-68
2024/02/23 05:34:14;;;;;;;13.45;7.43;;;5.00;99.90;;;;;;7363937;19;20030;-68
2024/02/23 05:36:42;;;;;;;14.75;6.63;;;5.00;99.90;;;;;;7389892;19;20041;-71
2024/02/23 05:39:09;;;;;;;16.23;7.78;;;5.00;99.90;;;;;;7379010;19;20022;-68
2024/02/23 05:41:36;;;;;;;15.13;7.53;;;5.00;99.90;;;;;;7385163;19;20033;-68
2024/02/23 05:44:13;;;;;;;19.17;8.23;;;5.00;99.90;;;;;;7382576;19;20018;-72
2024/02/23 05:46:39;;;;;;;13.82;7.22;;;5.10;99.90;;;;;;7385282;19;20015;-68
2024/02/23 05:49:05;;;;;;;16.27;7.50;;;5.00;99.90;;;;;;7389634;19;20011;-72
2024/02/23 05:51:32;;;;;;;14.00;7.55;;;5.00;99.90;;;;;;7374757;19;20022;-68
2024/02/23 05:53:59;;;;;;;13.85;6.70;;;5.00;99.90;;;;;;7365615;19;20030;-67
2024/02/23 05:56:26;;;;;;;13.07;6.82;;;4.90;99.90;;;;;;7369997;19;20025;-68
2024/02/23 05:58:54;;;;;;;11.85;6.70;;;4.90;99.90;;;;;;7380362;19;20015;-72
2024/02/23 06:01:21;;;;;;;17.77;7.63;;;4.90;99.90;;;;;;7379388;19;20018;-71
2024/02/23 06:03:48;;;;;;;14.05;6.95;;;4.90;99.90;;;;;;7377037;19;20010;-69
2024/02/23 06:06:15;;;;;;;12.80;7.32;;;4.90;99.90;;;;;;7371707;19;20976;-69
2024/02/23 06:08:42;;;;;;;14.85;7.95;;;4.80;99.90;;;;;;7380712;19;20100;-69
2024/02/23 06:11:14;;;;;;;12.05;7.28;;;4.90;99.90;;;;;;7380505;19;20074;-73
2024/02/23 06:13:45;;;;;;;;;;;4.80;99.90;;;;;;7396431;19;20041;-72
2024/02/23 06:16:12;;;;;;;11.98;6.57;;;4.90;99.90;;;;;;7378293;19;19923;-69
2024/02/23 06:18:41;;;;;;;15.73;6.68;;;4.90;99.90;;;;;;7367301;19;20026;-69
2024/02/23 06:21:17;;;;;;;12.70;7.30;;;4.80;99.90;;;;;;7363674;19;20078;-69
2024/02/23 06:23:45;;;;;;;13.63;7.10;;;4.80;99.90;;;;;;7367221;19;20082;-72
2024/02/23 06:26:12;;;;;;;11.65;6.20;;;4.80;99.90;;;;;;7384445;19;20094;-68
2024/02/23 06:28:42;;;;;;;15.35;7.07;;;4.80;99.90;;;;;;7368921;19;20018;-68
2024/02/23 06:31:17;;;;;;;16.02;7.22;;;4.80;99.90;;;;;;7373870;19;20031;-72
2024/02/23 06:33:48;;;;;;;13.98;7.63;;;4.90;99.90;;;;;;7374087;19;20082;-71
2024/02/23 06:36:20;;;;;;;15.20;7.78;;;4.80;99.90;;;;;;7392331;19;20471;-72
2024/02/23 06:38:47;;;;;;;15.95;7.03;;;4.90;99.90;;;;;;7365806;19;20015;-69
2024/02/23 06:41:15;;;;;;;11.95;6.55;;;4.90;99.90;;;;;;7364222;19;20015;-69
2024/02/23 06:43:42;;;;;;;14.75;6.47;;;4.90;99.90;;;;;;7361180;19;20039;-70
2024/02/23 06:46:09;;;;;;;15.10;7.10;;;4.90;99.90;;;;;;7361133;19;20806;-69
2024/02/23 06:48:37;;;;;;;15.30;6.97;;;4.90;99.90;;;;;;7364446;19;20045;-68
2024/02/23 06:51:05;;;;;;;13.95;6.72;;;4.90;99.90;;;;;;7374993;19;20021;-70
2024/02/23 06:53:32;;;;;;;12.52;6.97;;;4.90;99.90;;;;;;7362854;19;20018;-70
2024/02/23 06:56:02;;;;;;;9.38;6.95;;;5.00;99.90;;;;;;7365446;19;20019;-69
2024/02/23 06:58:30;;;;;;;12.43;7.13;;;5.00;99.90;;;;;;7365722;19;20793;-72
2024/02/23 07:00:57;;;;;;;14.75;6.78;;;5.00;99.90;;;;;;7369034;19;20790;-70
2024/02/23 07:03:25;;;;;;;16.52;7.50;;;5.10;99.90;;;;;;7367935;19;20026;-71
2024/02/23 07:05:52;;;;;;;11.43;7.22;;;5.20;99.90;;;;;;7365994;19;20029;-69
2024/02/23 07:08:19;;;;;;;16.58;6.80;;;5.20;99.90;;;;;;7365070;19;20090;-71
2024/02/23 07:10:46;;;;;;;14.50;6.28;;;5.20;99.90;;;;;;7375343;19;20026;-71
2024/02/23 07:13:13;;;;;;;13.05;7.00;;;5.20;99.90;;;;;;7373955;19;20014;-69
2024/02/23 07:15:39;;;;;;;11.43;6.70;;;5.20;99.90;;;;;;7384346;19;20535;-72
2024/02/23 07:18:08;;;;;;;14.35;6.30;;;5.20;99.90;;;;;;7376104;19;20899;-72
2024/02/23 07:20:38;;;;;;;15.25;6.47;;;5.20;99.90;;;;;;7376487;19;20023;-72
2024/02/23 07:23:05;;;;;;;10.40;5.88;;;5.20;99.90;;;;;;7380846;19;20105;-70
2024/02/23 07:25:31;;;;;;;10.40;5.50;;;5.20;99.90;;;;;;7372254;19;20086;-72
2024/02/23 07:27:57;;;;;;;11.75;6.05;;;5.30;99.90;;;;;;7372525;19;20010;-73
2024/02/23 07:30:24;;;;;;;14.20;5.85;;;5.30;99.90;;;;;;7365938;19;20026;-69
2024/02/23 07:32:51;;;;;;;7.95;4.90;;;5.40;99.90;;;;;;7370458;19;20792;-71
2024/02/23 07:35:17;;;;;;;9.43;4.80;;;5.40;99.90;;;;;;7366127;19;20034;-72
2024/02/23 07:37:43;;;;;;;9.93;5.22;;;5.50;99.90;;;;;;7373182;19;20022;-70
2024/02/23 07:40:10;;;;;;;8.70;4.78;;;5.50;99.90;;;;;;7364459;19;20589;-72
2024/02/23 07:42:36;;;;;;;8.65;4.07;;;5.50;99.90;;;;;;7377368;19;20023;-72
2024/02/23 07:45:06;;;;;;;12.45;4.35;;;5.50;99.90;;;;;;7371398;19;20035;-72
2024/02/23 07:47:33;;;;;;;9.02;4.20;;;5.50;99.90;;;;;;7372249;19;20010;-72
2024/02/23 07:50:00;;;;;;;13.82;4.38;;;5.60;99.90;;;;;;7370156;19;20903;-73
2024/02/23 07:52:27;;;;;;;11.23;3.63;;;5.60;99.90;;;;;;7369147;19;20018;-71
2024/02/23 07:54:54;;;;;;;7.55;3.03;;;5.60;99.90;;;;;;7365030;19;20022;-70
2024/02/23 07:57:20;;;;;;;9.90;3.58;;;5.60;99.90;;;;;;7368060;19;20859;-69
2024/02/23 07:59:47;;;;;;;11.13;3.05;;;5.60;99.90;;;;;;7375713;19;20027;-73
2024/02/23 08:02:15;;;;;;;7.00;3.03;;;5.60;99.90;;;;;;7370661;19;20777;-71
2024/02/23 08:04:42;;;;;;;8.95;2.65;;;5.60;99.90;;;;;;7370078;19;20748;-74
2024/02/23 08:07:10;;;;;;;8.38;2.85;;;5.70;99.90;;;;;;7377367;19;20018;-72
2024/02/23 08:09:36;;;;;;;10.30;3.05;;;5.60;99.90;;;;;;7370825;19;20070;-73
2024/02/23 08:12:03;;;;;;;6.00;2.40;;;5.60;99.90;;;;;;7380882;19;20018;-71
2024/02/23 08:14:35;;;;;;;9.23;2.72;;;5.80;99.90;;;;;;7362825;19;22097;-70
2024/02/23 08:17:03;;;;;;;9.15;2.90;;;5.70;99.90;;;;;;7379836;19;20082;-72
2024/02/23 08:19:32;;;;;;;7.80;3.00;;;5.80;99.90;;;;;;7370826;19;20046;-70
2024/02/23 08:22:00;;;;;;;6.50;3.38;;;5.80;99.90;;;;;;7375807;19;20022;-72
2024/02/23 08:24:27;;;;;;;9.65;2.70;;;5.90;99.90;;;;;;7377346;19;20006;-72
2024/02/23 08:26:54;;;;;;;8.02;2.38;;;5.90;99.90;;;;;;7375738;19;20514;-73
2024/02/23 08:29:22;;;;;;;9.00;2.70;;;5.90;99.90;;;;;;7383002;19;20015;-72
2024/02/23 08:31:49;;;;;;;10.68;3.28;;;6.00;99.90;;;;;;7378640;19;20489;-72
2024/02/23 08:34:17;;;;;;;10.30;2.72;;;6.10;99.90;;;;;;7380524;19;20010;-72
2024/02/23 08:36:44;;;;;;;6.00;2.22;;;6.10;99.90;;;;;;7368523;19;20029;-68
2024/02/23 08:39:12;;;;;;;6.03;2.47;;;6.10;99.90;;;;;;7377388;19;20046;-73
2024/02/23 08:41:40;;;;;;;7.80;2.35;;;6.30;99.90;;;;;;7384265;19;20063;-73
2024/02/23 08:44:08;;;;;;;8.13;2.20;;;6.60;99.90;;;;;;7382488;19;20011;-73
2024/02/23 08:46:35;;;;;;;6.03;2.30;;;6.70;99.90;;;;;;7388713;19;20348;-72
2024/02/23 08:49:02;;;;;;;7.60;1.98;;;6.90;99.90;;;;;;7385499;19;20374;-72
2024/02/23 08:51:28;;;;;;;6.78;1.85;;;6.90;99.90;;;;;;7382604;19;20049;-73
2024/02/23 08:53:56;;;;;;;6.65;1.75;;;7.00;99.90;;;;;;7376142;19;20014;-73
2024/02/23 08:56:24;;;;;;;5.78;1.80;;;7.20;99.90;;;;;;7387720;19;20383;-73
2024/02/23 08:58:52;;;;;;;4.03;2.00;;;7.30;99.90;;;;;;7387561;19;20025;-73
2024/02/23 09:01:19;;;;;;;7.55;1.80;;;7.50;99.90;;;;;;7388874;19;20015;-72
2024/02/23 09:03:46;;;;;;;6.43;1.70;;;7.60;99.90;;;;;;7381100;19;20014;-73
2024/02/23 09:06:12;;;;;;;5.60;1.80;;;7.60;99.90;;;;;;7384055;19;20041;-72
2024/02/23 09:08:40;;;;;;;8.15;1.42;;;7.60;99.90;;;;;;7379560;19;20082;-72
2024/02/23 09:11:07;;;;;;;7.22;2.08;;;7.60;99.90;;;;;;7384323;19;20011;-73
2024/02/23 09:13:33;;;;;;;7.43;1.50;;;7.70;99.90;;;;;;7372714;19;20348;-73
2024/02/23 09:16:00;;;;;;;4.65;1.85;;;8.30;99.90;;;;;;7373951;19;20014;-69
2024/02/23 09:18:27;;;;;;;7.15;1.80;;;8.80;99.90;;;;;;7371733;19;20019;-68
2024/02/23 09:20:55;;;;;;;5.07;1.50;;;8.90;99.90;;;;;;7369476;19;20029;-73
2024/02/23 09:23:24;;;;;;;5.07;1.70;;;9.00;99.90;;;;;;7380887;19;20019;-73
2024/02/23 09:25:51;;;;;;;10.95;1.83;;;9.00;99.90;;;;;;7367695;19;20030;-68
2024/02/23 09:28:18;;;;;;;9.27;1.90;;;8.80;99.90;;;;;;7369991;19;20042;-69
2024/02/23 09:30:45;;;;;;;6.93;1.90;;;8.40;99.90;;;;;;7368009;19;20359;-68
2024/02/23 09:33:11;;;;;;;5.40;1.73;;;8.00;99.90;;;;;;7389036;19;20018;-73
2024/02/23 09:35:38;;;;;;;10.00;2.40;;;7.80;99.90;;;;;;7381550;19;20011;-73
2024/02/23 09:38:05;;;;;;;4.88;1.40;;;7.60;99.90;;;;;;7386064;19;20030;-73
2024/02/23 09:40:32;;;;;;;9.43;2.10;;;7.60;99.90;;;;;;7383615;19;20010;-74
2024/02/23 09:43:01;;;;;;;8.07;1.83;;;7.60;99.90;;;;;;7386908;19;20022;-73
2024/02/23 09:45:28;;;;;;;5.22;1.38;;;7.60;99.90;;;;;;7377663;19;20026;-72
2024/02/23 09:47:57;;;;;;;5.43;1.60;;;7.50;99.90;;;;;;7384128;19;20786;-72
2024/02/23 09:50:24;;;;;;;7.15;1.88;;;7.50;99.90;;;;;;7376057;19;20288;-72
2024/02/23 09:52:52;;;;;;;6.18;2.20;;;7.70;99.90;;;;;;7381152;19;20018;-72
2024/02/23 09:55:27;;;;;;;6.55;1.73;;;7.70;99.90;;;;;;7373827;19;20007;-72
2024/02/23 09:57:58;;;;;;;5.72;1.63;;;7.80;99.90;;;;;;7378160;19;20887;-74
2024/02/23 10:00:25;;;;;;;6.88;1.90;;;7.90;99.90;;;;;;7380143;19;20774;-73
2024/02/23 10:02:55;;;;;;;6.68;1.38;;;7.90;99.90;;;;;;7376115;19;20011;-73
2024/02/23 10:05:30;;;;;;;5.32;1.33;;;8.10;99.90;;;;;;7377193;19;20014;-72
2024/02/23 10:07:58;;;;;;;7.13;1.50;;;8.20;99.90;;;;;;7374995;19;20015;-68
2024/02/23 10:10:38;;;;;;;6.80;1.35;;;8.20;99.90;;;;;;7363950;19;20534;-69
2024/02/23 10:13:09;;;;;;;7.03;1.55;;;8.10;99.90;;;;;;7366088;19;20026;-69
2024/02/23 10:15:37;;;;;;;7.25;2.10;;;8.00;99.90;;;;;;7367796;19;20485;-69
2024/02/23 10:18:06;;;;;;;5.03;1.27;;;8.00;99.90;;;;;;7364992;19;20022;-69
2024/02/23 10:20:34;;;;;;;7.20;1.65;;;8.10;99.90;;;;;;7367068;19;20025;-69
2024/02/23 10:23:03;;;;;;;8.02;1.73;;;8.10;99.90;;;;;;7361312;19;20020;-69
2024/02/23 10:25:33;;;;;;;6.55;1.58;;;7.90;99.90;;;;;;7367304;19;20081;-69
2024/02/23 10:28:00;;;;;;;8.57;2.03;;;7.80;99.90;;;;;;7371458;19;20577;-69
2024/02/23 10:30:27;;;;;;;6.53;1.67;;;7.70;99.90;;;;;;7371269;19;20093;-70
2024/02/23 10:32:57;;;;;;;7.70;1.63;;;7.60;99.90;;;;;;7369351;19;20029;-73
2024/02/23 10:35:25;;;;;;;10.18;1.67;;;7.60;99.90;;;;;;7361885;19;20011;-71
2024/02/23 10:37:53;;;;;;;6.28;1.50;;;7.50;99.90;;;;;;7372722;19;20026;-71
2024/02/23 10:40:26;;;;;;;7.00;1.55;;;7.50;99.90;;;;;;7369532;19;20011;-71
2024/02/23 10:42:56;;;;;;;7.18;1.83;;;7.50;99.90;;;;;;7370978;19;20019;-70
2024/02/23 10:45:23;;;;;;;10.70;2.58;;;7.40;99.90;;;;;;7361662;19;20018;-67
2024/02/23 10:47:52;;;;;;;5.25;1.33;;;7.40;99.90;;;;;;7367935;19;20022;-67
2024/02/23 10:50:19;;;;;;;5.65;1.40;;;7.40;99.90;;;;;;7365418;19;20902;-71
2024/02/23 10:52:46;;;;;;;9.95;1.80;;;7.40;99.90;;;;;;7371068;19;20023;-71
2024/02/23 10:55:15;;;;;;;6.25;1.90;;;7.40;99.90;;;;;;7372538;19;20023;-71
2024/02/23 10:57:41;;;;;;;7.25;1.55;;;7.40;99.90;;;;;;7369407;19;20021;-71
2024/02/23 11:00:10;;;;;;;7.13;1.77;;;7.40;99.90;;;;;;7370231;19;20478;-72
2024/02/23 11:02:43;;;;;;;6.68;1.48;;;7.40;99.90;;;;;;7373547;19;20014;-71
2024/02/23 11:05:12;;;;;;;7.85;2.28;;;7.40;99.90;;;;;;7368218;19;20109;-71
2024/02/23 11:07:42;;;;;;;4.82;1.50;;;7.30;99.90;;;;;;7370212;19;20057;-72
2024/02/23 11:10:11;;;;;;;6.57;1.40;;;7.30;99.90;;;;;;7371923;19;20025;-72
2024/02/23 11:12:38;;;;;;;4.97;1.63;;;7.30;99.90;;;;;;7372686;19;20792;-72
2024/02/23 11:15:07;;;;;;;5.53;1.50;;;7.30;99.90;;;;;;7369638;19;20019;-72
2024/02/23 11:17:38;;;;;;;9.93;1.63;;;7.30;99.90;;;;;;7375409;19;20029;-72
2024/02/23 11:20:08;;;;;;;6.13;1.95;;;7.30;99.90;;;;;;7373504;19;20051;-72
2024/02/23 11:22:36;;;;;;;7.97;1.75;;;7.30;99.90;;;;;;7373804;19;20018;-72
2024/02/23 11:25:05;;;;;;;6.18;1.80;;;7.30;99.90;;;;;;7368397;19;20680;-71
2024/02/23 11:27:38;;;;;;;7.60;2.03;;;7.40;99.90;;;;;;7370820;19;20616;-72
2024/02/23 11:30:06;;;;;;;;;;;7.40;99.90;;;;;;7372655;19;20013;-73
2024/02/23 11:32:48;;;;;;;5.43;1.33;;;7.40;99.90;;;;;;7383222;19;19911;-72
2024/02/23 11:35:21;;;;;;;8.05;2.03;;;7.30;99.90;;;;;;7383606;19;20885;-72
2024/02/23 11:38:04;;;;;;;6.68;1.63;;;7.10;99.90;;;;;;7387094;19;20011;-72
2024/02/23 11:40:33;;;;;;;9.20;1.75;;;7.00;99.90;;;;;;7383583;19;20037;-72
2024/02/23 11:43:05;;;;;;;9.05;2.10;;;7.00;99.90;;;;;;7382108;19;20125;-69
2024/02/23 11:45:33;;;;;;;7.88;1.52;;;6.90;99.90;;;;;;7367406;19;20011;-69
2024/02/23 11:48:01;;;;;;;5.45;1.67;;;6.90;99.90;;;;;;7372466;19;20946;-70
2024/02/23 11:50:28;;;;;;;6.70;1.67;;;6.90;99.90;;;;;;7373457;19;20014;-68
2024/02/23 11:52:57;;;;;;;7.70;1.88;;;6.90;99.90;;;;;;7375008;19;20139;-69
2024/02/23 11:55:24;;;;;;;12.93;2.10;;;6.90;99.90;;;;;;7367645;19;20933;-69
2024/02/23 11:57:52;;;;;;;5.70;1.58;;;6.90;99.90;;;;;;7368587;19;20018;-70
2024/02/23 12:00:19;;;;;;;6.05;1.50;;;7.00;99.90;;;;;;7372445;19;20048;-68
2024/02/23 12:02:49;;;;;;;5.90;1.50;;;7.00;99.90;;;;;;7371539;19;20018;-69
2024/02/23 12:05:17;;;;;;;7.18;1.45;;;7.00;99.90;;;;;;7373053;19;20745;-69
2024/02/23 12:07:46;;;;;;;5.72;1.80;;;7.10;99.90;;;;;;7370715;19;20401;-69
2024/02/23 12:10:16;;;;;;;4.35;1.73;;;7.10;99.90;;;;;;7370941;19;20023;-69
2024/02/23 12:12:44;;;;;;;6.50;1.65;;;7.00;99.90;;;;;;7369271;19;20482;-68
2024/02/23 12:15:11;;;;;;;6.85;1.60;;;7.10;99.90;;;;;;7373404;19;20015;-68
2024/02/23 12:17:47;;;;;;;2.85;1.55;;;7.10;99.90;;;;;;7372747;19;20077;-68
2024/02/23 12:20:14;;;;;;;6.32;1.67;;;7.10;99.90;;;;;;7366850;19;20025;-69
2024/02/23 12:22:42;;;;;;;5.70;1.60;;;7.10;99.90;;;;;;7368817;19;20010;-68
2024/02/23 12:25:12;;;;;;;5.50;1.83;;;7.10;99.90;;;;;;7369678;19;20014;-68
2024/02/23 12:27:39;;;;;;;5.05;1.33;;;7.10;99.90;;;;;;7368500;19;20010;-69
2024/02/23 12:30:14;;;;;;;4.93;1.58;;;7.10;99.90;;;;;;7372087;19;20037;-67
2024/02/23 12:32:41;;;;;;;5.43;1.67;;;7.20;99.90;;;;;;7372043;19;20015;-68
2024/02/23 12:35:14;;;;;;;5.00;1.40;;;7.20;99.90;;;;;;7365695;19;20467;-67
2024/02/23 12:37:42;;;;;;;7.88;1.75;;;7.20;99.90;;;;;;7370489;19;20021;-67
2024/02/23 12:40:10;;;;;;;8.02;1.88;;;7.20;99.90;;;;;;7368702;19;20029;-70
2024/02/23 12:42:38;;;;;;;10.38;2.38;;;7.20;99.90;;;;;;7363190;19;20014;-68
2024/02/23 12:45:06;;;;;;;6.55;1.85;;;7.20;99.90;;;;;;7377508;19;20015;-74
2024/02/23 12:47:38;;;;;;;4.95;1.73;;;7.20;99.90;;;;;;7373193;19;20015;-70
2024/02/23 12:50:08;;;;;;;8.30;1.88;;;7.10;99.90;;;;;;7371110;19;20025;-71
2024/02/23 12:52:34;;;;;;;4.65;1.67;;;7.10;99.90;;;;;;7372296;19;20319;-72
2024/02/23 12:55:01;;;;;;;5.70;1.80;;;7.10;99.90;;;;;;7373847;19;20019;-74